Aérodrome :
LOGIN :

S'inscrire | Disclaimer

   EN    FR    IT 

 










Légende :    VFR   VFR Marginal   IFR   IFR Intensif   IFR Très Intensif
Visi : 
Plafond : 
>= 8 km
>= 3000ft
5 à 8 km
1000 à 3000 ft
1500m à 5 km
500 à 1000 ft
800 à 1500m
200 à 500 ft
< 800m
< 200 ft
Symboles :   Orages  Brouillard  Fortes neiges  Fortes précipitations  Vent > 20 kt
SIGMETs :   Divers  Orages  Givrage  Turbulence  Onde Orograph.  Cendres Volcan.






- Altitude de l'aérodrome : 28 ft
- Code IATA : SOZ


LFKS - Solenzara

DERNIER METAR :
  • 250430Z AUTO 27004KT 240V310 CAVOK 18/13 Q1011

METARs EXPIRÉS :
  • 250400Z AUTO 27004KT 240V300 CAVOK 17/13 Q1011
  • 250330Z AUTO 31004KT 260V360 CAVOK 17/13 Q1011
  • 250300Z AUTO 26004KT 230V300 CAVOK 18/13 Q1011
  • 250230Z AUTO 26005KT 230V290 9999 FEW076 18/13 Q1010
  • 250200Z AUTO 27005KT 240V300 9999 OVC068 18/13 Q1011
  • 250130Z AUTO 26005KT 230V300 9999 OVC064 18/14 Q1011
  • 250100Z AUTO 27005KT 220V310 9999 FEW062 18/14 Q1011
  • 250030Z AUTO 28005KT 250V310 CAVOK 18/14 Q1011
  • 250000Z AUTO 26004KT 220V290 CAVOK 19/14 Q1011

TAF AMD TAF LFKS
Valide du 25 à 04h jusqu'au 26 à 03h UTC


250411Z 2504/2603 29003KT CAVOK
BECMG 2509/2510 SCT030TCU BKN100
TEMPO 2512/2519 TSRA SCT020 SCT050CB BKN090
BECMG 2520/2522 CAVOK



MET'MAP, la Météo Aéronautique d'un coup d'oeil ! - Copyright ORBIFLY Décembre 2007 - Disclaimer

ORBIFLY MET'MAP TEAM :

Programmation & Développement : Alexandra Zaïnal
Sur une idée originale de : Baudouin d'Aumeries
Soutien technique & logistique : Manuel Goepfert
Assistance : Marc-Olivier Méhu




SOURCES & CREDITS :

   NOAA